Terminal Aerodrome Forecast
Issued by NWS

Home | Current Version | Previous Version | Text Only | Print | Product List | Glossary On
Versions: 1 2 3 4 5 6 7 8 9 10 11 12 13 14 15 16 17 18
000
FTUS43 KMPX 282300
TAFRNH
TAF
KRNH 282333Z 2900/2924 12006KT P6SM BKN090
     FM291000 12006KT 4SM BR SCT004 BKN090
     FM291500 17007KT P6SM SCT090
     FM292200 25007KT P6SM SCT020 BKN250=

USA.gov is the U.S. government's official web portal to all federal, state and local government web resources and services.